Time;durP1;ratioP1;P1;durP2;ratioP2;P2;SDS_P1;SDS_P2;PMS_P1;PMS_P2;Temp;Humidity;BMP_temperature;BMP_pressure;BME280_temperature;BME280_humidity;BME280_pressure;Samples;Min_cycle;Max_cycle;Signal;HPM_P1;HPM_P2
2021/03/08 00:00:18;;;;;;;13.85;10.40;;;-1.00;99.70;;;;;;5072926;28;20216;-71
2021/03/08 00:02:46;;;;;;;14.18;9.85;;;-1.10;99.60;;;;;;5091695;28;20203;-71
2021/03/08 00:05:13;;;;;;;14.25;10.10;;;-1.10;99.60;;;;;;5090335;28;20546;-71
2021/03/08 00:07:40;;;;;;;14.20;10.52;;;-1.10;99.90;;;;;;5092209;28;20654;-72
2021/03/08 00:10:08;;;;;;;17.13;10.63;;;-1.10;99.90;;;;;;5091791;28;20212;-71
2021/03/08 00:12:34;;;;;;;14.20;11.35;;;-1.10;99.80;;;;;;5092476;28;20249;-71
2021/03/08 00:15:00;;;;;;;16.48;11.50;;;-1.10;99.70;;;;;;5092333;28;20280;-71
2021/03/08 00:17:27;;;;;;;12.60;9.88;;;-1.10;99.90;;;;;;5092635;28;20200;-71
2021/03/08 00:19:54;;;;;;;16.95;11.80;;;-1.20;99.90;;;;;;5091444;28;20224;-71
2021/03/08 00:22:20;;;;;;;15.73;12.05;;;-1.20;99.90;;;;;;5093171;28;20216;-71
2021/03/08 00:24:46;;;;;;;15.50;10.65;;;-1.20;99.80;;;;;;5092417;28;20204;-71
2021/03/08 00:27:12;;;;;;;13.65;10.90;;;-1.20;99.80;;;;;;5091919;28;20203;-71
2021/03/08 00:29:39;;;;;;;14.55;10.77;;;-1.20;99.70;;;;;;5091703;28;20662;-71
2021/03/08 00:32:07;;;;;;;11.93;9.60;;;-1.30;99.80;;;;;;5092046;28;20226;-71
2021/03/08 00:34:34;;;;;;;12.98;10.43;;;-1.30;99.80;;;;;;5091833;28;20310;-71
2021/03/08 00:37:01;;;;;;;15.73;10.75;;;-1.30;99.70;;;;;;5092049;28;20204;-70
2021/03/08 00:39:27;;;;;;;13.70;10.15;;;-1.30;99.80;;;;;;5091700;28;20224;-71
2021/03/08 00:41:54;;;;;;;13.05;10.43;;;-1.30;99.70;;;;;;5092178;28;20228;-71
2021/03/08 00:44:20;;;;;;;13.88;9.88;;;-1.30;99.80;;;;;;5091798;28;20204;-71
2021/03/08 00:46:46;;;;;;;13.88;9.63;;;-1.30;99.80;;;;;;5092049;28;20294;-71
2021/03/08 00:49:12;;;;;;;13.68;10.45;;;-1.30;99.60;;;;;;5091068;28;20215;-71
2021/03/08 00:51:38;;;;;;;13.30;9.57;;;-1.30;99.40;;;;;;5091698;28;20258;-70
2021/03/08 00:54:06;;;;;;;13.43;10.07;;;-1.20;99.30;;;;;;5089709;28;20211;-71
2021/03/08 00:56:32;;;;;;;12.68;9.80;;;-1.20;99.30;;;;;;5089472;28;20268;-71
2021/03/08 00:58:58;;;;;;;14.40;10.32;;;-1.20;99.30;;;;;;5091032;28;20200;-70
2021/03/08 01:01:25;;;;;;;11.05;9.35;;;-1.20;99.30;;;;;;5089592;28;20223;-71
2021/03/08 01:03:51;;;;;;;14.02;9.13;;;-1.20;99.20;;;;;;5091541;28;20199;-71
2021/03/08 01:06:18;;;;;;;14.02;9.75;;;-1.20;99.00;;;;;;5090908;28;20196;-70
2021/03/08 01:08:44;;;;;;;11.10;8.60;;;-1.30;98.70;;;;;;5091063;28;20207;-71
2021/03/08 01:11:11;;;;;;;11.30;8.82;;;-1.30;98.70;;;;;;5091207;28;20223;-73
2021/03/08 01:13:37;;;;;;;12.30;9.57;;;-1.30;98.90;;;;;;5091162;28;20258;-73
2021/03/08 01:16:04;;;;;;;14.25;9.52;;;-1.30;98.80;;;;;;5091403;28;20253;-73
2021/03/08 01:18:30;;;;;;;15.43;10.68;;;-1.40;98.80;;;;;;5090743;28;20897;-73
2021/03/08 01:20:56;;;;;;;12.70;9.45;;;-1.40;98.80;;;;;;5090440;28;20220;-74
2021/03/08 01:23:23;;;;;;;12.27;9.10;;;-1.50;99.10;;;;;;5090707;28;20200;-73
2021/03/08 01:25:49;;;;;;;12.07;8.82;;;-1.40;99.10;;;;;;5091392;28;20572;-73
2021/03/08 01:28:16;;;;;;;11.63;9.32;;;-1.40;99.20;;;;;;5090783;28;20204;-73
2021/03/08 01:30:45;;;;;;;15.90;10.27;;;-1.40;99.20;;;;;;5090020;28;20220;-73
2021/03/08 01:33:12;;;;;;;13.40;9.10;;;-1.50;99.10;;;;;;5090699;28;20225;-73
2021/03/08 01:35:39;;;;;;;14.40;10.23;;;-1.40;99.00;;;;;;5090615;28;20203;-73
2021/03/08 01:38:06;;;;;;;11.10;9.80;;;-1.50;99.00;;;;;;5090856;28;20202;-73
2021/03/08 01:40:34;;;;;;;12.30;9.98;;;-1.50;99.20;;;;;;5089708;28;20680;-72
2021/03/08 01:43:00;;;;;;;15.15;9.93;;;-1.50;99.20;;;;;;5090815;28;20219;-73
2021/03/08 01:45:28;;;;;;;13.63;10.52;;;-1.50;99.10;;;;;;5090574;28;20261;-73
2021/03/08 01:47:54;;;;;;;12.38;10.45;;;-1.50;99.20;;;;;;5090488;28;20204;-73
2021/03/08 01:50:23;;;;;;;17.80;9.68;;;-1.60;99.20;;;;;;5089815;28;20224;-73
2021/03/08 01:52:51;;;;;;;14.35;9.65;;;-1.60;99.40;;;;;;5090397;28;20215;-72
2021/03/08 01:55:17;;;;;;;15.43;9.52;;;-1.60;99.40;;;;;;5090386;28;20574;-73
2021/03/08 01:57:44;;;;;;;10.15;8.10;;;-1.70;99.30;;;;;;5090300;28;20277;-73
2021/03/08 02:00:11;;;;;;;13.32;10.25;;;-1.70;99.40;;;;;;5090105;28;20597;-72
2021/03/08 02:02:39;;;;;;;11.93;9.18;;;-1.70;99.50;;;;;;5090317;28;20268;-74
2021/03/08 02:05:07;;;;;;;11.40;9.85;;;-1.70;99.40;;;;;;5090263;28;20709;-70
2021/03/08 02:07:34;;;;;;;12.90;9.70;;;-1.70;99.40;;;;;;5090167;28;20212;-71
2021/03/08 02:10:00;;;;;;;12.35;9.32;;;-1.70;99.30;;;;;;5089312;28;20215;-71
2021/03/08 02:12:38;;;;;;;12.93;8.35;;;-1.70;99.20;;;;;;5089708;28;20578;-71
2021/03/08 02:15:12;;;;;;;12.48;8.88;;;-1.70;99.10;;;;;;5090129;28;20203;-71
2021/03/08 02:17:48;;;;;;;14.77;9.10;;;-1.70;99.10;;;;;;5089831;28;20195;-71
2021/03/08 02:20:48;;;;;;;12.40;9.48;;;-1.70;99.10;;;;;;5089108;28;20227;-71
2021/03/08 02:23:42;;;;;;;11.18;9.20;;;-1.70;99.00;;;;;;5089593;28;20615;-70
2021/03/08 02:26:27;;;;;;;10.68;8.63;;;-1.70;99.00;;;;;;5090050;28;20639;-70
2021/03/08 02:29:24;;;;;;;10.73;8.55;;;-1.70;98.90;;;;;;5089285;28;20200;-72
2021/03/08 02:31:54;;;;;;;11.20;8.40;;;-1.70;98.90;;;;;;5089598;28;20845;-72
2021/03/08 02:34:26;;;;;;;10.15;7.88;;;-1.70;98.80;;;;;;5089433;28;20208;-72
2021/03/08 02:36:57;;;;;;;11.00;8.80;;;-1.70;98.80;;;;;;5089886;28;20204;-72
2021/03/08 02:39:27;;;;;;;9.32;8.38;;;-1.60;98.60;;;;;;5088324;28;20207;-73
2021/03/08 02:41:56;;;;;;;8.98;7.43;;;-1.60;98.40;;;;;;5089705;28;20223;-71
2021/03/08 02:44:28;;;;;;;11.13;8.45;;;-1.60;98.10;;;;;;5089109;28;20561;-71
2021/03/08 02:46:56;;;;;;;11.57;8.13;;;-1.60;98.10;;;;;;5089595;28;20257;-72
2021/03/08 02:49:27;;;;;;;11.18;7.65;;;-1.60;98.10;;;;;;5088811;28;20573;-72
2021/03/08 02:51:58;;;;;;;10.05;8.07;;;-1.60;98.20;;;;;;5089289;28;20252;-71
2021/03/08 02:54:27;;;;;;;9.65;7.53;;;-1.60;98.30;;;;;;5089268;28;20249;-72
2021/03/08 02:56:58;;;;;;;10.73;8.32;;;-1.60;98.30;;;;;;5089166;28;20576;-72
2021/03/08 02:59:27;;;;;;;10.68;8.27;;;-1.60;98.30;;;;;;5088670;28;20204;-71
2021/03/08 03:01:56;;;;;;;12.68;8.95;;;-1.60;98.30;;;;;;5089084;28;20226;-72
2021/03/08 03:04:23;;;;;;;13.27;9.50;;;-1.60;98.20;;;;;;5089319;28;20739;-72
2021/03/08 03:06:51;;;;;;;13.02;9.07;;;-1.60;98.30;;;;;;5089445;28;20204;-71
2021/03/08 03:09:20;;;;;;;12.38;8.43;;;-1.70;98.40;;;;;;5088385;28;20690;-70
2021/03/08 03:11:49;;;;;;;14.50;9.77;;;-1.80;98.30;;;;;;5089438;28;20220;-71
2021/03/08 03:14:16;;;;;;;10.70;8.65;;;-1.80;98.30;;;;;;5088912;28;20204;-71
2021/03/08 03:16:45;;;;;;;15.75;9.23;;;-1.80;98.50;;;;;;5089309;28;20272;-71
2021/03/08 03:19:15;;;;;;;13.20;8.80;;;-1.80;98.50;;;;;;5088380;28;20272;-70
2021/03/08 03:21:45;;;;;;;10.23;8.30;;;-1.80;98.50;;;;;;5089258;28;20658;-71
2021/03/08 03:24:12;;;;;;;14.52;9.25;;;-1.80;98.40;;;;;;5091529;28;20218;-71
2021/03/08 03:26:40;;;;;;;12.57;9.20;;;-1.80;98.50;;;;;;5092955;28;20196;-71
2021/03/08 03:29:07;;;;;;;13.60;8.50;;;-1.90;98.50;;;;;;5092917;28;20608;-71
2021/03/08 03:31:35;;;;;;;11.55;8.73;;;-1.90;98.50;;;;;;5092706;28;20226;-72
2021/03/08 03:34:02;;;;;;;11.60;9.45;;;-2.00;98.50;;;;;;5093344;28;20207;-71
2021/03/08 03:36:31;;;;;;;12.30;9.55;;;-2.00;98.60;;;;;;5092798;28;20206;-71
2021/03/08 03:38:58;;;;;;;14.45;9.43;;;-2.10;98.60;;;;;;5092686;28;20199;-72
2021/03/08 03:41:25;;;;;;;11.77;9.23;;;-2.10;99.10;;;;;;5092713;28;20224;-72
2021/03/08 03:43:51;;;;;;;12.18;8.93;;;-2.10;98.90;;;;;;5092877;28;20253;-72
2021/03/08 03:46:18;;;;;;;13.10;8.80;;;-2.20;98.90;;;;;;5092785;28;20200;-72
2021/03/08 03:48:44;;;;;;;12.00;8.75;;;-2.20;99.30;;;;;;5092276;28;20200;-71
2021/03/08 03:51:11;;;;;;;10.38;8.70;;;-2.30;99.20;;;;;;5092636;28;20227;-71
2021/03/08 03:53:38;;;;;;;13.27;8.95;;;-2.30;99.10;;;;;;5092597;28;20234;-71
2021/03/08 03:56:06;;;;;;;16.30;9.82;;;-2.30;99.30;;;;;;5092688;28;20204;-72
2021/03/08 03:58:36;;;;;;;13.70;8.90;;;-2.30;99.30;;;;;;5092748;28;20212;-71
2021/03/08 04:01:07;;;;;;;13.02;9.65;;;-2.30;99.40;;;;;;5092216;28;20246;-72
2021/03/08 04:03:37;;;;;;;13.00;9.75;;;-2.40;99.70;;;;;;5092420;28;20249;-72
2021/03/08 04:06:06;;;;;;;13.13;9.95;;;-2.40;99.70;;;;;;5092295;28;20200;-72
2021/03/08 04:08:34;;;;;;;11.25;8.82;;;-2.40;99.90;;;;;;5092069;28;20211;-72
2021/03/08 04:11:04;;;;;;;11.57;9.60;;;-2.40;99.80;;;;;;5092306;28;20721;-71
2021/03/08 04:13:33;;;;;;;13.63;9.52;;;-2.40;99.90;;;;;;5092214;28;20262;-72
2021/03/08 04:15:59;;;;;;;12.13;9.40;;;-2.40;99.90;;;;;;5092466;28;20199;-72
2021/03/08 04:18:27;;;;;;;14.02;9.35;;;-2.40;99.90;;;;;;5091893;28;20199;-71
2021/03/08 04:20:57;;;;;;;9.82;8.82;;;-2.40;99.90;;;;;;5091754;28;20223;-72
2021/03/08 04:23:25;;;;;;;11.85;9.63;;;-2.40;99.90;;;;;;5091772;28;20208;-71
2021/03/08 04:25:52;;;;;;;17.02;10.05;;;-2.40;99.90;;;;;;5092156;28;20605;-71
2021/03/08 04:28:20;;;;;;;12.38;10.50;;;-2.40;99.90;;;;;;5092017;28;20677;-71
2021/03/08 04:30:47;;;;;;;17.20;10.45;;;-2.40;99.90;;;;;;5091242;28;20288;-71
2021/03/08 04:33:15;;;;;;;12.50;9.48;;;-2.40;99.90;;;;;;5092112;28;20236;-71
2021/03/08 04:35:45;;;;;;;11.20;9.30;;;-2.50;99.90;;;;;;5091204;28;20233;-71
2021/03/08 04:38:11;;;;;;;19.67;10.23;;;-2.50;99.90;;;;;;5090981;28;20191;-72
2021/03/08 04:40:39;;;;;;;13.10;10.27;;;-2.50;99.90;;;;;;5090459;28;20228;-72
2021/03/08 04:43:07;;;;;;;15.13;10.85;;;-2.50;99.90;;;;;;5092399;28;20245;-72
2021/03/08 04:45:35;;;;;;;16.17;10.40;;;-2.50;99.90;;;;;;5092092;28;20207;-71
2021/03/08 04:48:03;;;;;;;14.52;10.55;;;-2.50;99.90;;;;;;5091881;28;20563;-70
2021/03/08 04:50:30;;;;;;;13.95;10.65;;;-2.50;99.90;;;;;;5091191;28;20216;-70
2021/03/08 04:52:57;;;;;;;14.55;9.57;;;-2.60;99.90;;;;;;5090898;28;20839;-72
2021/03/08 04:55:27;;;;;;;13.48;9.93;;;-2.60;99.90;;;;;;5091364;28;20215;-71
2021/03/08 04:57:54;;;;;;;14.27;10.27;;;-2.60;99.90;;;;;;5091434;28;20573;-70
2021/03/08 05:00:21;;;;;;;13.00;10.23;;;-2.60;99.90;;;;;;5090714;28;20232;-70
2021/03/08 05:02:51;;;;;;;16.55;11.80;;;-2.60;99.90;;;;;;5091250;28;20196;-71
2021/03/08 05:05:21;;;;;;;13.80;11.40;;;-2.70;99.90;;;;;;5084099;28;20205;-71
2021/03/08 05:07:48;;;;;;;15.68;11.23;;;-2.70;99.90;;;;;;5071195;28;20200;-72
2021/03/08 05:10:17;;;;;;;15.35;10.95;;;-2.70;99.90;;;;;;5070259;28;20221;-70
2021/03/08 05:12:43;;;;;;;14.95;10.68;;;-2.80;99.90;;;;;;5071461;28;20764;-71
2021/03/08 05:15:13;;;;;;;13.60;10.23;;;-2.80;99.90;;;;;;5071491;28;20204;-71
2021/03/08 05:17:41;;;;;;;14.27;11.25;;;-2.80;99.90;;;;;;5070945;28;20208;-71
2021/03/08 05:20:11;;;;;;;17.67;10.90;;;-2.80;99.90;;;;;;5070752;28;20232;-68
2021/03/08 05:22:39;;;;;;;17.08;10.82;;;-2.90;99.90;;;;;;5071109;28;20212;-69
2021/03/08 05:25:07;;;;;;;13.02;10.38;;;-2.80;99.90;;;;;;5071188;28;20196;-69
2021/03/08 05:27:34;;;;;;;21.08;10.65;;;-2.90;99.90;;;;;;5070397;28;20215;-68
2021/03/08 05:30:03;;;;;;;14.38;9.68;;;-2.90;99.90;;;;;;5069358;28;20193;-69
2021/03/08 05:32:30;;;;;;;17.35;10.90;;;-2.90;99.90;;;;;;5069782;28;20215;-69
2021/03/08 05:35:00;;;;;;;15.35;11.25;;;-2.80;99.90;;;;;;5070592;28;20204;-69
2021/03/08 05:37:27;;;;;;;14.85;10.85;;;-2.80;99.90;;;;;;5070416;28;20227;-69
2021/03/08 05:39:56;;;;;;;14.30;10.93;;;-2.90;99.90;;;;;;5069825;28;20204;-68
2021/03/08 05:42:28;;;;;;;13.00;10.32;;;-2.90;99.90;;;;;;5070372;28;20752;-69
2021/03/08 05:44:59;;;;;;;14.18;10.50;;;-2.90;99.90;;;;;;5070511;28;20226;-69
2021/03/08 05:47:59;;;;;;;14.60;11.15;;;-2.90;99.90;;;;;;5069691;28;20207;-69
2021/03/08 05:50:43;;;;;;;15.02;10.13;;;-2.90;99.90;;;;;;5021991;28;20224;-68
2021/03/08 05:53:37;;;;;;;16.35;11.18;;;-3.00;99.90;;;;;;5070702;28;20637;-69
2021/03/08 05:56:23;;;;;;;15.02;11.05;;;-3.00;99.90;;;;;;5070606;28;20197;-70
2021/03/08 05:59:14;;;;;;;17.40;10.80;;;-3.00;99.90;;;;;;5133930;22;20728;-90
2021/03/08 06:02:02;;;;;;;16.58;11.70;;;-3.00;99.90;;;;;;5053247;28;20240;-90
2021/03/08 06:05:06;;;;;;;15.25;11.10;;;-3.00;99.90;;;;;;5055787;28;20211;-90
2021/03/08 06:08:08;;;;;;;13.75;10.30;;;-3.00;99.90;;;;;;5064318;28;20212;-90
2021/03/08 06:10:46;;;;;;;16.55;11.25;;;-3.00;99.90;;;;;;5073430;28;20211;-90
2021/03/08 06:13:17;;;;;;;15.77;11.73;;;-2.90;99.90;;;;;;5072863;28;20712;-90
2021/03/08 06:15:48;;;;;;;15.13;10.32;;;-2.90;99.90;;;;;;5072870;28;20677;-90
2021/03/08 06:18:15;;;;;;;15.85;12.13;;;-2.90;99.90;;;;;;5074939;28;20234;-90
2021/03/08 06:20:41;;;;;;;14.82;10.85;;;-2.80;99.90;;;;;;5091290;28;20234;-91
2021/03/08 06:23:09;;;;;;;14.23;11.50;;;-2.80;99.90;;;;;;5091690;28;20259;-90
2021/03/08 06:25:46;;;;;;;17.42;11.52;;;-2.80;99.90;;;;;;5094211;28;20185;-90
2021/03/08 06:28:12;;;;;;;15.23;11.73;;;-2.80;99.90;;;;;;5094389;28;20254;-91
2021/03/08 06:30:39;;;;;;;19.90;12.52;;;-2.70;99.90;;;;;;5090378;28;20260;-90
2021/03/08 06:33:06;;;;;;;19.05;11.70;;;-2.70;99.90;;;;;;5091474;28;20207;-91
2021/03/08 06:35:32;;;;;;;20.05;11.95;;;-2.60;99.90;;;;;;5086441;28;20232;-89
2021/03/08 06:37:59;;;;;;;21.15;12.13;;;-2.50;99.90;;;;;;5074870;28;20209;-89
2021/03/08 06:40:26;;;;;;;17.10;11.90;;;-2.50;99.90;;;;;;5075864;28;20223;-90
2021/03/08 06:42:54;;;;;;;16.20;12.00;;;-2.50;99.90;;;;;;5077562;28;20201;-90
2021/03/08 06:45:22;;;;;;;17.55;12.40;;;-2.40;99.90;;;;;;5078057;28;20208;-91
2021/03/08 07:05:01;;;;;;;19.90;12.50;;;-1.70;99.90;;;;;;5076298;28;20197;-90
2021/03/08 07:10:10;;;;;;;17.38;13.02;;;-1.30;99.90;;;;;;5083099;28;20180;-90
2021/03/08 07:12:48;;;;;;;19.23;13.43;;;-1.00;99.90;;;;;;5082246;28;20204;-92
2021/03/08 07:18:01;;;;;;;16.13;12.52;;;-0.40;99.90;;;;;;5077693;28;20227;-92
2021/03/08 07:23:10;;;;;;;15.68;11.68;;;0.90;99.90;;;;;;5075623;28;20192;-90
2021/03/08 07:28:24;;;;;;;14.48;12.30;;;2.70;99.90;;;;;;5077450;28;20586;-91
2021/03/08 07:37:53;;;;;;;13.48;10.38;;;5.40;94.90;;;;;;5075008;28;20222;-91
2021/03/08 07:40:25;;;;;;;12.68;10.13;;;6.30;92.50;;;;;;5079196;28;20220;-91
2021/03/08 07:42:52;;;;;;;11.02;9.93;;;6.80;90.10;;;;;;5095124;28;20252;-91
2021/03/08 07:45:22;;;;;;;13.38;10.90;;;7.10;88.20;;;;;;5095678;28;20215;-89
2021/03/08 07:56:29;;;;;;;12.30;10.73;;;8.50;83.90;;;;;;5077869;28;20188;-90
2021/03/08 08:01:42;;;;;;;12.50;10.95;;;8.10;83.40;;;;;;5076781;28;20231;-90
2021/03/08 08:04:12;;;;;;;12.25;10.95;;;8.50;83.10;;;;;;5077284;28;20247;-90
2021/03/08 08:09:22;;;;;;;13.43;11.18;;;9.90;80.40;;;;;;5076892;28;20197;-88
2021/03/08 08:21:13;;;;;;;12.57;11.20;;;10.60;77.70;;;;;;5070647;28;20257;-88
2021/03/08 08:23:42;;;;;;;14.30;11.18;;;10.30;77.20;;;;;;5095144;28;20242;-92
2021/03/08 08:26:19;;;;;;;12.20;10.95;;;11.20;75.40;;;;;;5093450;28;20196;-91
2021/03/08 08:28:48;;;;;;;11.90;10.52;;;11.80;73.40;;;;;;5079222;28;20701;-91
2021/03/08 08:31:15;;;;;;;14.60;12.43;;;11.70;73.50;;;;;;5086548;28;20251;-92
2021/03/08 08:33:42;;;;;;;14.13;12.07;;;12.40;72.20;;;;;;5076756;28;20264;-91
2021/03/08 08:36:24;;;;;;;11.85;10.65;;;13.00;71.30;;;;;;5080383;28;20700;-90
2021/03/08 08:39:19;;;;;;;15.10;12.15;;;12.50;69.60;;;;;;5093410;28;20224;-91
2021/03/08 08:41:48;;;;;;;14.48;11.10;;;12.00;71.10;;;;;;5087083;28;20334;-92
2021/03/08 08:44:39;;;;;;;16.30;12.00;;;12.70;69.40;;;;;;5081913;28;20207;-92
2021/03/08 08:47:27;;;;;;;13.18;11.70;;;13.20;69.60;;;;;;5081655;28;20228;-92
2021/03/08 08:50:34;;;;;;;15.17;12.80;;;13.60;68.00;;;;;;5083616;28;20205;-92
2021/03/08 08:53:04;;;;;;;15.50;11.10;;;14.00;66.60;;;;;;5081892;28;20549;-92
2021/03/08 08:55:49;;;;;;;12.30;10.73;;;14.70;65.70;;;;;;5079136;28;20962;-92
2021/03/08 08:58:44;;;;;;;12.80;11.47;;;15.40;64.30;;;;;;5077073;28;21007;-92
2021/03/08 09:01:28;;;;;;;12.53;11.33;;;15.90;61.90;;;;;;5085559;28;20446;-92
2021/03/08 09:04:07;;;;;;;12.60;11.33;;;15.40;61.60;;;;;;5083045;28;20482;-93
2021/03/08 09:10:34;;;;;;;11.33;9.83;;;16.50;59.50;;;;;;5022725;28;20434;-93
2021/03/08 09:13:28;;;;;;;;;;;;;;;;;;;;;
2021/03/08 09:21:30;;;;;;;17.37;11.93;;;17.10;59.30;;;;;;5079226;28;20827;-91
2021/03/08 09:24:42;;;;;;;12.97;11.57;;;18.10;57.40;;;;;;5081470;28;20991;-92
2021/03/08 09:27:18;;;;;;;12.80;11.40;;;17.50;56.50;;;;;;5077063;28;21040;-92
2021/03/08 09:30:14;;;;;;;12.87;11.60;;;17.60;57.50;;;;;;5080250;28;20970;-91
2021/03/08 09:33:01;;;;;;;12.03;10.73;;;17.70;56.50;;;;;;5077580;28;20517;-91
2021/03/08 09:35:31;;;;;;;12.40;10.97;;;18.20;56.70;;;;;;5076576;28;20522;-92
2021/03/08 09:38:06;;;;;;;11.73;10.60;;;19.00;55.40;;;;;;5080261;28;20526;-91
2021/03/08 09:40:37;;;;;;;12.60;11.40;;;19.30;55.20;;;;;;5080948;28;20454;-92
2021/03/08 09:43:21;;;;;;;11.23;10.10;;;18.30;55.10;;;;;;5079437;28;20458;-93
2021/03/08 09:45:55;;;;;;;12.70;9.83;;;18.20;55.80;;;;;;5097987;28;20523;-95
2021/03/08 09:48:23;;;;;;;12.70;10.90;;;19.00;54.70;;;;;;5096337;28;20536;-93
2021/03/08 09:50:50;;;;;;;10.37;9.33;;;19.20;53.90;;;;;;5075219;28;21080;-92
2021/03/08 09:53:16;;;;;;;11.60;10.40;;;18.60;54.80;;;;;;5074575;28;20475;-92
2021/03/08 09:55:43;;;;;;;11.00;10.10;;;19.30;54.00;;;;;;5075522;28;20455;-91
2021/03/08 09:58:12;;;;;;;11.73;10.53;;;19.20;53.70;;;;;;5074616;28;20571;-92
2021/03/08 10:00:42;;;;;;;11.33;10.27;;;19.20;53.70;;;;;;5076297;28;20558;-92
2021/03/08 10:03:10;;;;;;;13.40;11.00;;;19.10;54.30;;;;;;5075558;28;20490;-92
2021/03/08 10:05:42;;;;;;;13.33;11.90;;;18.40;54.90;;;;;;5075020;28;20494;-92
2021/03/08 10:08:10;;;;;;;12.27;11.27;;;17.80;55.20;;;;;;5074272;28;20487;-92
2021/03/08 10:10:42;;;;;;;12.73;11.50;;;18.20;54.10;;;;;;5073388;28;20475;-92
2021/03/08 10:13:12;;;;;;;12.57;11.37;;;19.00;53.60;;;;;;5074445;28;20955;-91
2021/03/08 10:15:42;;;;;;;10.67;9.57;;;18.70;54.60;;;;;;5076791;28;20463;-92
2021/03/08 10:18:24;;;;;;;12.30;11.20;;;19.20;54.70;;;;;;5076119;28;20513;-92
2021/03/08 10:23:37;;;;;;;10.13;9.20;;;20.50;53.00;;;;;;5076064;28;20520;-91
2021/03/08 10:34:19;;;;;;;10.50;9.47;;;20.50;52.10;;;;;;5096363;28;20427;-94
2021/03/08 10:37:16;;;;;;;10.47;9.17;;;19.70;53.20;;;;;;5097400;28;20452;-93
2021/03/08 10:39:44;;;;;;;10.10;9.03;;;20.50;52.80;;;;;;5098568;22;20485;-73
2021/03/08 10:42:11;;;;;;;10.60;9.57;;;19.70;53.50;;;;;;5070282;28;20477;-73
2021/03/08 10:44:38;;;;;;;11.00;9.80;;;19.60;51.40;;;;;;5071076;28;20459;-74
2021/03/08 10:47:13;;;;;;;9.70;8.80;;;19.50;51.90;;;;;;5069967;28;20458;-73
2021/03/08 10:49:49;;;;;;;10.30;9.30;;;20.80;50.50;;;;;;5070037;28;20458;-73
2021/03/08 10:52:16;;;;;;;10.07;9.07;;;21.10;49.70;;;;;;5070439;28;21089;-72
2021/03/08 10:54:44;;;;;;;8.50;7.80;;;20.80;49.80;;;;;;5071034;28;20946;-73
2021/03/08 10:57:11;;;;;;;9.70;8.27;;;20.80;49.60;;;;;;5070379;28;20462;-72
2021/03/08 10:59:45;;;;;;;10.03;9.07;;;20.50;49.90;;;;;;5069431;28;20467;-73
2021/03/08 11:02:14;;;;;;;8.13;7.43;;;20.50;49.30;;;;;;5070482;28;20830;-73
2021/03/08 11:04:41;;;;;;;7.70;7.00;;;21.10;49.10;;;;;;5070424;28;20473;-73
2021/03/08 11:07:07;;;;;;;8.87;8.07;;;21.90;48.20;;;;;;5070322;28;20806;-73
2021/03/08 11:09:35;;;;;;;7.27;6.60;;;22.10;48.90;;;;;;5070629;28;20458;-73
2021/03/08 11:12:03;;;;;;;7.83;7.00;;;22.50;47.30;;;;;;5070593;28;20494;-72
2021/03/08 11:14:29;;;;;;;9.20;8.40;;;22.70;47.60;;;;;;5071378;28;20470;-74
2021/03/08 11:16:57;;;;;;;9.93;8.93;;;22.90;47.10;;;;;;5071322;28;20462;-74
2021/03/08 11:19:25;;;;;;;9.07;8.23;;;22.70;48.00;;;;;;5070747;28;20464;-74
2021/03/08 11:22:07;;;;;;;8.70;8.00;;;21.70;47.90;;;;;;5071442;28;20475;-73
2021/03/08 11:24:42;;;;;;;12.60;8.87;;;21.60;47.90;;;;;;5071485;28;20833;-73
2021/03/08 11:27:16;;;;;;;9.20;8.30;;;21.20;49.10;;;;;;5070699;28;20457;-72
2021/03/08 11:29:56;;;;;;;9.07;8.27;;;21.70;48.00;;;;;;5070515;28;20545;-72
2021/03/08 11:32:23;;;;;;;9.10;8.30;;;21.40;47.70;;;;;;5070609;28;20508;-73
2021/03/08 11:34:52;;;;;;;8.80;8.00;;;22.00;47.70;;;;;;5071499;28;20463;-73
2021/03/08 11:37:19;;;;;;;8.93;8.00;;;21.10;47.50;;;;;;5070899;28;20451;-73
2021/03/08 11:39:47;;;;;;;9.50;8.60;;;20.90;48.10;;;;;;5070243;28;20488;-72
2021/03/08 11:42:17;;;;;;;8.97;8.17;;;21.00;47.70;;;;;;5069888;28;20511;-72
2021/03/08 11:44:43;;;;;;;8.63;7.87;;;20.50;48.70;;;;;;5065755;28;20458;-73
2021/03/08 11:47:09;;;;;;;8.27;7.47;;;21.00;46.70;;;;;;5069605;28;20839;-73
2021/03/08 11:49:36;;;;;;;9.30;8.40;;;21.80;46.80;;;;;;5071154;28;20470;-71
2021/03/08 11:52:03;;;;;;;9.10;8.10;;;22.30;46.30;;;;;;5070984;28;20876;-72
2021/03/08 11:54:29;;;;;;;8.97;8.03;;;21.20;46.90;;;;;;5072114;28;20983;-73
2021/03/08 11:56:56;;;;;;;9.90;8.93;;;21.10;48.00;;;;;;5070266;28;20458;-73
2021/03/08 11:59:23;;;;;;;9.17;8.27;;;21.20;47.90;;;;;;5070481;28;20458;-73
2021/03/08 12:01:49;;;;;;;8.50;7.70;;;20.40;47.60;;;;;;5071566;28;20478;-73
2021/03/08 12:04:15;;;;;;;9.00;8.10;;;20.60;47.40;;;;;;5071302;28;20481;-73
2021/03/08 12:06:42;;;;;;;8.77;7.97;;;20.60;48.20;;;;;;5071334;28;20541;-73
2021/03/08 12:09:08;;;;;;;8.97;8.10;;;20.70;47.60;;;;;;5070272;28;20465;-73
2021/03/08 12:11:34;;;;;;;8.90;8.10;;;20.20;47.70;;;;;;5070879;28;20555;-73
2021/03/08 12:14:00;;;;;;;9.50;8.70;;;20.50;47.20;;;;;;5070054;28;20462;-74
2021/03/08 12:16:27;;;;;;;9.53;8.73;;;19.80;47.50;;;;;;5071430;28;20472;-71
2021/03/08 12:18:53;;;;;;;10.60;9.60;;;20.10;48.80;;;;;;5070919;28;20462;-73
2021/03/08 12:21:20;;;;;;;9.40;8.40;;;19.80;48.40;;;;;;5070438;28;20478;-73
2021/03/08 12:23:48;;;;;;;9.60;8.70;;;19.50;48.30;;;;;;5073809;28;20466;-72
2021/03/08 12:26:14;;;;;;;9.47;8.57;;;20.10;47.30;;;;;;5072379;28;20477;-73
2021/03/08 12:28:41;;;;;;;9.90;8.90;;;20.10;48.70;;;;;;5072242;28;20507;-73
2021/03/08 12:31:07;;;;;;;9.30;8.30;;;20.50;47.50;;;;;;5073017;28;20489;-73
2021/03/08 12:33:37;;;;;;;10.97;8.67;;;20.60;47.50;;;;;;5072893;28;20462;-73
2021/03/08 12:36:04;;;;;;;10.07;9.17;;;20.80;47.00;;;;;;5073010;28;20463;-74
2021/03/08 12:38:30;;;;;;;9.90;9.00;;;20.10;48.30;;;;;;5073037;28;20481;-73
2021/03/08 12:40:57;;;;;;;10.23;9.23;;;19.40;48.90;;;;;;5071381;28;21375;-73
2021/03/08 12:43:23;;;;;;;11.50;10.33;;;19.30;49.10;;;;;;5072404;28;20458;-72
2021/03/08 12:45:49;;;;;;;10.93;9.93;;;18.80;47.90;;;;;;5072128;28;20462;-73
2021/03/08 12:48:15;;;;;;;10.43;9.43;;;19.40;48.30;;;;;;5072125;28;20500;-73
2021/03/08 12:50:42;;;;;;;10.17;9.20;;;18.70;48.90;;;;;;5070815;28;20486;-73
2021/03/08 12:53:10;;;;;;;10.07;9.07;;;18.00;48.50;;;;;;5072675;28;20463;-72
2021/03/08 12:55:36;;;;;;;10.20;9.30;;;18.50;48.80;;;;;;5074235;28;20463;-73
2021/03/08 12:58:03;;;;;;;10.50;9.50;;;18.30;49.60;;;;;;5074528;28;20462;-73
2021/03/08 13:00:29;;;;;;;10.63;9.50;;;18.30;48.60;;;;;;5073743;28;21000;-73
2021/03/08 13:02:55;;;;;;;9.00;8.30;;;18.30;48.50;;;;;;5073035;28;20837;-72
2021/03/08 13:05:21;;;;;;;9.70;8.50;;;18.70;47.50;;;;;;5071431;28;20462;-72
2021/03/08 13:07:49;;;;;;;9.53;8.67;;;18.90;48.10;;;;;;5071595;28;20465;-73
2021/03/08 13:10:15;;;;;;;10.20;9.20;;;19.00;47.40;;;;;;5070682;28;20482;-72
2021/03/08 13:12:42;;;;;;;9.37;8.37;;;18.80;47.90;;;;;;5071068;28;20469;-73
2021/03/08 13:15:09;;;;;;;10.37;9.47;;;19.00;47.50;;;;;;5071740;28;20469;-72
2021/03/08 13:17:36;;;;;;;9.83;8.80;;;18.30;48.00;;;;;;5071952;28;20470;-74
2021/03/08 13:20:05;;;;;;;10.03;9.10;;;18.10;48.00;;;;;;5070931;28;20921;-73
2021/03/08 13:22:32;;;;;;;9.03;8.13;;;17.50;48.80;;;;;;5071470;28;20822;-73
2021/03/08 13:24:59;;;;;;;8.97;8.17;;;17.60;48.00;;;;;;5071235;28;20459;-72
2021/03/08 13:27:25;;;;;;;10.50;9.50;;;17.30;48.90;;;;;;5070597;28;20458;-72
2021/03/08 13:29:52;;;;;;;10.53;8.63;;;17.30;48.80;;;;;;5070671;28;20961;-73
2021/03/08 13:32:18;;;;;;;13.33;9.63;;;17.20;48.90;;;;;;5070934;28;20589;-73
2021/03/08 13:34:44;;;;;;;9.50;8.50;;;17.20;48.70;;;;;;5071564;28;20497;-73
2021/03/08 13:37:11;;;;;;;10.13;9.17;;;17.80;48.30;;;;;;5071226;28;20463;-74
2021/03/08 13:39:37;;;;;;;9.30;8.40;;;17.90;47.40;;;;;;5069611;28;20470;-73
2021/03/08 13:42:05;;;;;;;8.80;8.00;;;17.30;49.10;;;;;;5071681;28;20478;-73
2021/03/08 13:44:31;;;;;;;9.47;8.57;;;17.60;48.40;;;;;;5070952;28;20462;-73
2021/03/08 13:46:58;;;;;;;10.23;9.23;;;17.50;49.00;;;;;;5071333;28;20463;-73
2021/03/08 13:49:24;;;;;;;9.30;8.50;;;17.60;48.40;;;;;;5070455;28;20515;-73
2021/03/08 13:51:50;;;;;;;9.50;8.70;;;17.40;48.30;;;;;;5070420;28;20851;-73
2021/03/08 13:54:16;;;;;;;9.03;8.10;;;17.40;47.80;;;;;;5070270;28;20463;-71
2021/03/08 13:56:42;;;;;;;9.77;8.87;;;17.10;47.90;;;;;;5070642;28;20455;-74
2021/03/08 13:59:10;;;;;;;9.47;8.57;;;17.00;48.90;;;;;;5069988;28;21156;-73
2021/03/08 14:01:36;;;;;;;8.83;7.47;;;16.60;48.90;;;;;;5069639;28;20471;-73
2021/03/08 14:04:03;;;;;;;9.97;8.97;;;16.50;49.50;;;;;;5070213;28;20459;-73
2021/03/08 14:06:29;;;;;;;8.77;7.87;;;17.20;48.60;;;;;;5069942;28;20459;-73
2021/03/08 14:08:55;;;;;;;9.27;8.47;;;17.30;48.60;;;;;;5069433;28;20459;-74